KMMU

Morristown Municipal Airport

Morristown, New Jersey, USA
METAR KMMU 221945Z 23005KT 10SM FEW050 BKN100 11/02 A3017
Observed Flight Rules
Oct-22 @ 19:45 UTC (an hour ago) Visual Flight Rules
Wind Visibility Clouds
230° at 5 knots 10 miles
  • Few at 5,000' AGL
  • Broken at 10,000' AGL
Temperatures Readings
Current 11°C / 52°F
Dewpoint 2°C / 36°F
Humidity 54%
Altimeter 30.17" Hg
Pressure 1022 hPa
Elevation 57
METAR KMMU 221945Z 23005KT 10SM FEW050 BKN100 11/02 A3017
Observed Flight Rules
Oct-22 @ 19:45 UTC
(an hour ago)
VFR
Wind Visibility
230° at 5 knots 10 miles
Clouds
  • Few at 5,000' AGL
  • Broken at 10,000' AGL
Temperature Dewpoint
11°C / 52°F 2°C / 36°F
Humidity Altimeter Pressure
54% 30.17" Hg 1022 hPa